createdAt,value
2023-02-16T00:00:03.498Z,17.20
2023-02-16T00:02:10.288Z,17.83
2023-02-16T00:04:18.872Z,17.13
2023-02-16T00:06:21.863Z,17.10
2023-02-16T00:08:24.750Z,17.57
2023-02-16T00:10:30.945Z,16.43
2023-02-16T00:12:51.169Z,16.87
2023-02-16T00:14:53.946Z,16.83
2023-02-16T00:16:57.906Z,15.83
2023-02-16T00:19:02.503Z,17.70
2023-02-16T00:21:05.612Z,17.13
2023-02-16T00:23:08.422Z,17.47
2023-02-16T00:25:11.630Z,17.80
2023-02-16T00:27:18.445Z,17.70
2023-02-16T00:29:25.481Z,16.90
2023-02-16T00:31:32.844Z,17.07
2023-02-16T00:33:35.630Z,16.60
2023-02-16T00:35:39.656Z,17.77
2023-02-16T00:37:42.414Z,17.50
2023-02-16T00:39:46.348Z,17.70
2023-02-16T00:41:51.189Z,18.13
2023-02-16T00:43:54.852Z,18.17
2023-02-16T00:45:58.018Z,17.57
2023-02-16T00:48:00.782Z,17.83
2023-02-16T00:50:04.505Z,16.87
2023-02-16T00:52:33.972Z,17.57
2023-02-16T00:54:36.793Z,16.67
2023-02-16T00:56:40.692Z,17.47
2023-02-16T00:58:43.489Z,17.30
2023-02-16T01:00:49.709Z,17.87
2023-02-16T01:03:00.958Z,16.97
2023-02-16T01:05:03.908Z,18.23
2023-02-16T01:07:29.561Z,18.77
2023-02-16T01:09:49.637Z,19.03
2023-02-16T01:11:52.625Z,18.43
2023-02-16T01:13:56.960Z,19.53
2023-02-16T01:15:59.823Z,18.67
2023-02-16T01:18:02.607Z,18.03
2023-02-16T01:20:11.233Z,17.77
2023-02-16T01:22:15.821Z,17.93
2023-02-16T01:24:18.612Z,19.00
2023-02-16T01:26:21.975Z,19.40
2023-02-16T01:28:26.966Z,17.13
2023-02-16T01:30:29.881Z,17.83
2023-02-16T01:32:33.225Z,18.53
2023-02-16T01:34:35.921Z,18.30
2023-02-16T01:36:40.560Z,17.20
2023-02-16T01:38:44.598Z,18.13
2023-02-16T01:40:54.478Z,17.60
2023-02-16T01:43:03.870Z,18.40
2023-02-16T01:45:14.104Z,16.93
2023-02-16T01:47:30.818Z,17.63
2023-02-16T01:49:33.657Z,17.83
2023-02-16T01:51:49.725Z,17.07
2023-02-16T01:53:59.403Z,16.67
2023-02-16T01:56:05.879Z,18.07
2023-02-16T01:58:15.694Z,16.60
2023-02-16T02:00:28.230Z,18.27
2023-02-16T02:02:36.452Z,17.53
2023-02-16T02:05:01.868Z,18.57
2023-02-16T02:07:04.742Z,17.77
2023-02-16T02:09:12.678Z,17.67
2023-02-16T02:11:19.278Z,17.50
2023-02-16T02:13:27.739Z,16.80
2023-02-16T02:15:33.320Z,18.17
2023-02-16T02:17:37.338Z,17.90
2023-02-16T02:19:48.834Z,17.93
2023-02-16T02:22:32.452Z,17.27
2023-02-16T02:24:58.636Z,17.27
2023-02-16T02:27:18.025Z,18.30
2023-02-16T02:29:35.996Z,19.30
2023-02-16T02:31:50.706Z,18.13
2023-02-16T02:34:02.937Z,19.20
2023-02-16T02:36:17.624Z,18.50
2023-02-16T02:38:28.932Z,18.57
2023-02-16T02:40:42.101Z,18.00
2023-02-16T02:42:53.737Z,18.20
2023-02-16T02:45:02.679Z,18.53
2023-02-16T02:47:05.692Z,18.13
2023-02-16T02:49:08.455Z,19.13
2023-02-16T02:51:33.773Z,18.90
2023-02-16T02:53:39.460Z,17.03
2023-02-16T02:56:14.666Z,18.77
2023-02-16T02:58:37.752Z,19.80
2023-02-16T03:00:46.699Z,19.87
2023-02-16T03:02:52.460Z,18.50
2023-02-16T03:04:57.607Z,19.60
2023-02-16T03:07:02.594Z,20.13
2023-02-16T03:09:11.449Z,20.40
2023-02-16T03:11:35.361Z,20.30
2023-02-16T03:13:44.102Z,18.60
2023-02-16T03:15:49.002Z,19.27
2023-02-16T03:18:12.510Z,20.30
2023-02-16T03:20:35.020Z,20.10
2023-02-16T03:22:57.478Z,20.73
2023-02-16T03:25:17.594Z,20.83
2023-02-16T03:27:44.809Z,19.97
2023-02-16T03:29:50.937Z,19.63
2023-02-16T03:31:56.067Z,20.00
2023-02-16T03:33:59.401Z,21.17
2023-02-16T03:36:02.725Z,20.60
2023-02-16T03:38:06.312Z,21.27
2023-02-16T03:40:32.808Z,20.33
2023-02-16T03:42:35.626Z,21.17
2023-02-16T03:44:38.560Z,22.60
2023-02-16T03:46:43.013Z,22.33
2023-02-16T03:48:45.869Z,21.63
2023-02-16T03:50:48.589Z,22.53
2023-02-16T03:52:51.362Z,20.93
2023-02-16T03:54:54.080Z,23.33
2023-02-16T03:56:56.908Z,26.73
2023-02-16T03:58:59.669Z,25.00
2023-02-16T04:01:02.820Z,23.97
2023-02-16T04:03:08.840Z,22.60
2023-02-16T04:05:11.690Z,22.77
2023-02-16T04:07:14.617Z,23.30
2023-02-16T04:09:17.386Z,21.93
2023-02-16T04:11:37.558Z,22.33
2023-02-16T04:13:40.409Z,22.47
2023-02-16T04:15:43.211Z,23.50
2023-02-16T04:17:46.406Z,23.37
2023-02-16T04:19:50.497Z,21.77
2023-02-16T04:21:53.778Z,23.33
2023-02-16T04:23:56.502Z,22.40
2023-02-16T04:25:59.245Z,23.47
2023-02-16T04:28:02.149Z,23.47
2023-02-16T04:30:06.255Z,23.63
2023-02-16T04:32:09.223Z,23.90
2023-02-16T04:34:12.295Z,23.47
2023-02-16T04:36:16.613Z,22.20
2023-02-16T04:38:19.326Z,25.33
2023-02-16T04:40:22.258Z,24.90
2023-02-16T04:42:25.135Z,23.53
2023-02-16T04:44:28.005Z,23.07
2023-02-16T04:46:30.940Z,24.37
2023-02-16T04:48:33.678Z,24.50
2023-02-16T04:50:36.377Z,22.97
2023-02-16T04:52:41.400Z,23.37
2023-02-16T04:54:44.519Z,22.73
2023-02-16T04:56:47.817Z,24.53
2023-02-16T04:58:50.544Z,23.07
2023-02-16T05:00:53.240Z,24.77
2023-02-16T05:02:55.941Z,22.87
2023-02-16T05:04:58.653Z,24.03
2023-02-16T05:07:01.390Z,25.57
2023-02-16T05:09:06.943Z,24.33
2023-02-16T05:11:27.797Z,24.33
2023-02-16T05:13:48.164Z,24.57
2023-02-16T05:15:50.899Z,26.60
2023-02-16T05:17:53.628Z,29.73
2023-02-16T05:19:58.337Z,35.53
2023-02-16T05:22:00.240Z,32.67
2023-02-16T05:24:07.189Z,31.10
2023-02-16T05:26:09.889Z,25.73
2023-02-16T05:28:12.726Z,26.53
2023-02-16T05:30:16.430Z,25.93
2023-02-16T05:32:19.665Z,28.40
2023-02-16T05:34:22.633Z,35.47
2023-02-16T05:36:25.679Z,29.17
2023-02-16T05:38:28.409Z,28.37
2023-02-16T05:40:32.512Z,26.63
2023-02-16T05:42:35.199Z,26.53
2023-02-16T05:44:38.352Z,25.90
2023-02-16T05:46:42.062Z,27.53
2023-02-16T05:48:44.880Z,27.77
2023-02-16T05:50:47.646Z,26.27
2023-02-16T05:52:50.326Z,28.63
2023-02-16T05:54:53.137Z,31.23
2023-02-16T05:56:57.227Z,29.80
2023-02-16T05:59:00.527Z,28.47
2023-02-16T06:01:03.529Z,26.00
2023-02-16T06:03:06.433Z,26.70
2023-02-16T06:05:09.415Z,24.70
2023-02-16T06:07:14.637Z,26.80
2023-02-16T06:09:18.118Z,27.07
2023-02-16T06:11:39.148Z,27.07
2023-02-16T06:13:43.212Z,26.43
2023-02-16T06:15:46.585Z,25.43
2023-02-16T06:17:49.395Z,26.97
2023-02-16T06:19:52.467Z,27.57
2023-02-16T06:21:55.208Z,27.57
2023-02-16T06:23:58.182Z,26.47
2023-02-16T06:26:00.896Z,24.23
2023-02-16T06:28:04.073Z,26.60
2023-02-16T06:30:09.564Z,26.07
2023-02-16T06:32:12.387Z,26.03
2023-02-16T06:34:15.117Z,25.80
2023-02-16T06:36:18.206Z,24.70
2023-02-16T06:38:20.946Z,28.00
2023-02-16T06:40:23.733Z,26.73
2023-02-16T06:42:26.509Z,28.80
2023-02-16T06:44:29.390Z,27.70
2023-02-16T06:46:33.911Z,24.63
2023-02-16T06:48:36.672Z,27.03
2023-02-16T06:50:39.391Z,27.87
2023-02-16T06:52:42.301Z,25.40
2023-02-16T06:54:45.055Z,29.00
2023-02-16T06:56:47.769Z,26.67
2023-02-16T06:58:50.963Z,29.17
2023-02-16T07:00:55.744Z,28.63
2023-02-16T07:02:59.923Z,28.70
2023-02-16T07:05:03.364Z,28.97
2023-02-16T07:07:06.165Z,27.43
2023-02-16T07:09:10.604Z,26.03
2023-02-16T07:11:14.328Z,27.77
2023-02-16T07:13:17.128Z,30.40
2023-02-16T07:15:19.959Z,29.47
2023-02-16T07:17:22.703Z,31.07
2023-02-16T07:19:26.962Z,36.70
2023-02-16T07:21:30.009Z,35.40
2023-02-16T07:23:33.170Z,30.97
2023-02-16T07:25:37.072Z,29.90
2023-02-16T07:27:39.909Z,30.53
2023-02-16T07:29:42.629Z,32.50
2023-02-16T07:31:45.557Z,30.13
2023-02-16T07:33:48.359Z,30.60
2023-02-16T07:35:52.414Z,29.27
2023-02-16T07:37:55.086Z,32.03
2023-02-16T07:39:58.459Z,30.87
2023-02-16T07:42:01.729Z,30.90
2023-02-16T07:44:04.510Z,30.20
2023-02-16T07:46:07.365Z,31.27
2023-02-16T07:48:10.281Z,29.97
2023-02-16T07:50:13.358Z,30.43
2023-02-16T07:52:17.370Z,30.83
2023-02-16T07:54:20.168Z,29.27
2023-02-16T07:56:24.306Z,29.07
2023-02-16T07:58:29.990Z,29.17
2023-02-16T08:00:32.730Z,29.93
2023-02-16T08:02:36.045Z,26.63
2023-02-16T08:04:38.845Z,28.67
2023-02-16T08:06:41.558Z,27.57
2023-02-16T08:08:45.669Z,25.30
2023-02-16T08:10:48.354Z,26.87
2023-02-16T08:12:52.824Z,25.93
2023-02-16T08:14:55.595Z,26.10
2023-02-16T08:16:58.339Z,26.80
2023-02-16T08:19:04.767Z,26.27
2023-02-16T08:21:14.184Z,25.30
2023-02-16T08:23:16.964Z,25.93
2023-02-16T08:25:21.041Z,25.47
2023-02-16T08:27:24.779Z,25.50
2023-02-16T08:29:27.548Z,25.90
2023-02-16T08:31:32.556Z,25.17
2023-02-16T08:33:35.392Z,24.93
2023-02-16T08:35:39.541Z,25.03
2023-02-16T08:37:42.413Z,25.47
2023-02-16T08:39:45.262Z,25.43
2023-02-16T08:41:50.838Z,24.77
2023-02-16T08:43:53.697Z,25.07
2023-02-16T08:45:57.193Z,25.37
2023-02-16T08:48:02.185Z,24.33
2023-02-16T08:50:05.119Z,24.20
2023-02-16T08:52:07.856Z,24.03
2023-02-16T08:54:14.776Z,25.83
2023-02-16T08:56:17.536Z,24.20
2023-02-16T08:58:22.000Z,24.00
2023-02-16T09:00:38.061Z,22.60
2023-02-16T09:02:40.761Z,34.80
2023-02-16T09:04:43.525Z,38.37
2023-02-16T09:06:48.388Z,29.23
2023-02-16T09:08:55.868Z,22.87
2023-02-16T09:11:02.659Z,23.93
2023-02-16T09:13:05.886Z,33.43
2023-02-16T09:15:11.406Z,23.73
2023-02-16T09:17:14.260Z,21.83
2023-02-16T09:19:20.417Z,22.03
2023-02-16T09:21:25.678Z,23.53
2023-02-16T09:23:28.442Z,27.63
2023-02-16T09:25:36.806Z,22.93
2023-02-16T09:27:40.060Z,21.70
2023-02-16T09:29:43.881Z,22.00
2023-02-16T09:31:47.944Z,22.47
2023-02-16T09:33:51.338Z,21.93
2023-02-16T09:35:54.657Z,23.13
2023-02-16T09:37:58.194Z,20.53
2023-02-16T09:40:01.202Z,22.33
2023-02-16T09:42:17.320Z,21.03
2023-02-16T09:44:28.309Z,20.73
2023-02-16T09:46:33.410Z,19.77
2023-02-16T09:48:42.581Z,21.43
2023-02-16T09:50:53.695Z,22.13
2023-02-16T09:53:01.684Z,22.13
2023-02-16T09:55:08.954Z,22.27
2023-02-16T09:57:27.640Z,21.33
2023-02-16T09:59:42.401Z,19.90
2023-02-16T10:01:52.186Z,19.57
2023-02-16T10:04:06.557Z,20.40
2023-02-16T10:06:27.182Z,20.23
2023-02-16T10:08:34.153Z,28.00
2023-02-16T10:10:45.602Z,18.80
2023-02-16T10:12:54.875Z,18.10
2023-02-16T10:15:01.379Z,19.53
2023-02-16T10:17:16.149Z,19.43
2023-02-16T10:19:24.235Z,20.70
2023-02-16T10:21:31.358Z,19.37
2023-02-16T10:23:43.147Z,19.17
2023-02-16T10:25:49.471Z,18.83
2023-02-16T10:28:12.572Z,19.63
2023-02-16T10:30:17.304Z,19.23
2023-02-16T10:32:29.124Z,18.87
2023-02-16T10:34:46.274Z,18.10
2023-02-16T10:37:03.430Z,18.20
2023-02-16T10:39:17.201Z,19.03
2023-02-16T10:41:31.574Z,19.03
2023-02-16T10:43:43.817Z,17.70
2023-02-16T10:45:52.405Z,17.57
2023-02-16T10:47:55.628Z,19.00
2023-02-16T10:49:59.874Z,17.87
2023-02-16T10:52:04.427Z,18.40
2023-02-16T10:54:11.317Z,18.73
2023-02-16T10:56:39.748Z,17.03
2023-02-16T10:58:43.015Z,17.83
2023-02-16T11:00:52.655Z,17.80
2023-02-16T11:02:56.343Z,17.83
2023-02-16T11:05:48.456Z,18.20
2023-02-16T11:07:54.686Z,18.20
2023-02-16T11:10:01.224Z,19.70
2023-02-16T11:12:17.756Z,17.63
2023-02-16T11:14:23.228Z,16.77
2023-02-16T11:16:26.548Z,16.10
2023-02-16T11:18:34.110Z,16.63
2023-02-16T11:20:53.794Z,16.97
2023-02-16T11:23:14.455Z,16.90
2023-02-16T11:25:26.854Z,16.37
2023-02-16T11:27:29.900Z,15.97
2023-02-16T11:29:32.895Z,16.23
2023-02-16T11:31:40.726Z,16.17
2023-02-16T11:33:55.305Z,18.03
2023-02-16T11:36:02.352Z,16.53
2023-02-16T11:38:06.342Z,15.50
2023-02-16T11:40:21.532Z,16.67
2023-02-16T11:42:32.191Z,16.20
2023-02-16T11:44:37.544Z,16.13
2023-02-16T11:46:41.749Z,17.20
2023-02-16T11:48:44.985Z,17.50
2023-02-16T11:50:57.412Z,16.83
2023-02-16T11:53:23.401Z,16.37
2023-02-16T11:55:33.010Z,17.67
2023-02-16T11:57:37.394Z,18.20
2023-02-16T11:59:41.332Z,16.37
2023-02-16T12:02:23.043Z,16.97
2023-02-16T12:04:36.865Z,17.63
2023-02-16T12:06:55.375Z,16.57
2023-02-16T12:09:13.194Z,16.63
2023-02-16T12:11:28.119Z,16.80
2023-02-16T12:13:39.403Z,15.37
2023-02-16T12:15:49.093Z,16.80
2023-02-16T12:18:06.685Z,16.80
2023-02-16T12:20:23.914Z,15.67
2023-02-16T12:22:34.006Z,16.30
2023-02-16T12:24:50.189Z,16.73
2023-02-16T12:26:57.365Z,15.53
2023-02-16T12:29:11.111Z,16.10
2023-02-16T12:31:34.004Z,16.37
2023-02-16T12:33:49.569Z,16.33
2023-02-16T12:36:02.784Z,15.63
2023-02-16T12:38:16.619Z,15.53
2023-02-16T12:40:32.417Z,15.63
2023-02-16T12:42:45.996Z,15.67
2023-02-16T12:44:51.495Z,17.23
2023-02-16T12:47:01.929Z,16.43
2023-02-16T12:49:14.524Z,16.00
2023-02-16T12:51:20.325Z,16.23
2023-02-16T12:53:27.987Z,15.07
2023-02-16T12:55:38.212Z,16.03
2023-02-16T12:57:50.481Z,16.27
2023-02-16T12:59:59.450Z,16.67
2023-02-16T13:02:05.351Z,16.27
2023-02-16T13:04:18.620Z,15.43
2023-02-16T13:06:47.688Z,15.23
2023-02-16T13:08:57.187Z,15.80
2023-02-16T13:11:11.317Z,15.53
2023-02-16T13:13:18.948Z,15.57
2023-02-16T13:15:27.069Z,15.27
2023-02-16T13:17:34.083Z,15.60
2023-02-16T13:19:37.254Z,15.93
2023-02-16T13:21:55.280Z,16.67
2023-02-16T13:24:07.690Z,17.57
2023-02-16T13:26:39.288Z,16.97
2023-02-16T13:29:12.056Z,16.87
2023-02-16T13:31:27.220Z,16.17
2023-02-16T13:33:52.800Z,17.20
2023-02-16T13:36:07.608Z,14.97
2023-02-16T13:38:34.149Z,15.40
2023-02-16T13:40:59.682Z,16.47
2023-02-16T13:43:28.079Z,16.83
2023-02-16T13:45:33.783Z,15.33
2023-02-16T13:47:50.153Z,16.17
2023-02-16T13:49:58.760Z,15.63
2023-02-16T13:52:02.126Z,15.77
2023-02-16T13:54:05.602Z,16.63
2023-02-16T13:56:23.107Z,15.93
2023-02-16T13:58:35.640Z,16.33
2023-02-16T14:00:40.988Z,16.23
2023-02-16T14:03:02.018Z,17.10
2023-02-16T14:05:11.807Z,16.23
2023-02-16T14:07:35.799Z,15.77
2023-02-16T14:09:49.330Z,16.57
2023-02-16T14:12:04.478Z,16.20
2023-02-16T14:14:27.891Z,16.63
2023-02-16T14:16:34.034Z,16.53
2023-02-16T14:18:43.435Z,15.87
2023-02-16T14:20:46.129Z,16.17
2023-02-16T14:22:51.072Z,17.27
2023-02-16T14:24:56.138Z,16.73
2023-02-16T14:27:01.891Z,16.30
2023-02-16T14:29:15.904Z,17.03
2023-02-16T14:31:22.837Z,15.63
2023-02-16T14:33:39.359Z,17.10
2023-02-16T14:35:44.026Z,16.03
2023-02-16T14:37:55.341Z,16.70
2023-02-16T14:40:12.287Z,16.67
2023-02-16T14:42:17.765Z,15.63
2023-02-16T14:44:45.838Z,16.37
2023-02-16T14:46:57.662Z,16.67
2023-02-16T14:49:41.191Z,17.17
2023-02-16T14:52:16.331Z,16.93
2023-02-16T14:54:52.685Z,17.40
2023-02-16T14:57:03.130Z,16.80
2023-02-16T14:59:13.190Z,16.20
2023-02-16T15:01:19.340Z,15.73
2023-02-16T15:03:24.352Z,16.93
2023-02-16T15:05:29.831Z,16.70
2023-02-16T15:07:32.585Z,16.83
2023-02-16T15:09:36.365Z,15.27
2023-02-16T15:11:59.071Z,16.73
2023-02-16T15:14:09.306Z,16.10
2023-02-16T15:16:15.850Z,17.10
2023-02-16T15:18:23.483Z,15.77
2023-02-16T15:20:30.980Z,15.97
2023-02-16T15:22:33.819Z,15.80
2023-02-16T15:24:36.574Z,16.33
2023-02-16T15:26:39.305Z,15.23
2023-02-16T15:28:42.085Z,15.80
2023-02-16T15:30:49.136Z,15.60
2023-02-16T15:32:54.264Z,16.33
2023-02-16T15:34:59.526Z,15.73
2023-02-16T15:37:20.031Z,16.17
2023-02-16T15:39:38.512Z,17.13
2023-02-16T15:41:51.107Z,16.53
2023-02-16T15:43:53.834Z,16.33
2023-02-16T15:45:56.739Z,16.10
2023-02-16T15:48:25.825Z,15.77
2023-02-16T15:50:30.468Z,16.13
2023-02-16T15:52:35.801Z,16.27
2023-02-16T15:54:40.511Z,16.60
2023-02-16T15:56:47.212Z,17.57
2023-02-16T15:58:50.344Z,16.03
2023-02-16T16:00:55.057Z,15.97
2023-02-16T16:02:59.126Z,16.17
2023-02-16T16:05:04.424Z,15.77
2023-02-16T16:07:13.025Z,15.27
2023-02-16T16:09:25.547Z,15.80
2023-02-16T16:11:28.699Z,16.13
2023-02-16T16:13:32.303Z,15.70
2023-02-16T16:15:41.577Z,17.87
2023-02-16T16:17:44.334Z,24.03
2023-02-16T16:19:47.206Z,19.90
2023-02-16T16:21:54.140Z,16.77
2023-02-16T16:24:01.209Z,22.30
2023-02-16T16:26:16.916Z,18.47
2023-02-16T16:28:35.801Z,16.63
2023-02-16T16:30:43.790Z,17.77
2023-02-16T16:32:47.034Z,18.37
2023-02-16T16:34:51.010Z,17.23
2023-02-16T16:36:56.584Z,16.27
2023-02-16T16:39:23.594Z,16.10
2023-02-16T16:41:29.062Z,16.27
2023-02-16T16:43:33.553Z,15.50
2023-02-16T16:45:37.962Z,14.77
2023-02-16T16:47:42.129Z,16.37
2023-02-16T16:49:59.136Z,15.43
2023-02-16T16:52:03.995Z,15.50
2023-02-16T16:54:08.393Z,15.77
2023-02-16T16:56:15.107Z,16.00
2023-02-16T16:58:17.842Z,16.20
2023-02-16T17:00:21.689Z,15.97
2023-02-16T17:02:24.492Z,15.73
2023-02-16T17:04:27.893Z,15.50
2023-02-16T17:06:31.046Z,16.97
2023-02-16T17:08:33.744Z,16.27
2023-02-16T17:10:38.387Z,16.27
2023-02-16T17:12:42.586Z,16.93
2023-02-16T17:14:45.331Z,16.47
2023-02-16T17:16:50.706Z,16.13
2023-02-16T17:18:53.567Z,16.93
2023-02-16T17:20:56.493Z,16.40
2023-02-16T17:23:04.334Z,16.50
2023-02-16T17:25:07.396Z,16.70
2023-02-16T17:27:11.256Z,16.37
2023-02-16T17:29:16.134Z,17.53
2023-02-16T17:31:18.949Z,17.37
2023-02-16T17:33:21.770Z,16.80
2023-02-16T17:35:24.597Z,16.80
2023-02-16T17:37:27.947Z,17.50
2023-02-16T17:39:31.464Z,16.77
2023-02-16T17:41:34.132Z,17.40
2023-02-16T17:43:36.829Z,18.40
2023-02-16T17:45:41.490Z,17.70
2023-02-16T17:47:45.246Z,16.57
2023-02-16T17:49:47.960Z,18.20
2023-02-16T17:51:50.685Z,18.07
2023-02-16T17:53:53.619Z,17.17
2023-02-16T17:55:58.534Z,17.63
2023-02-16T17:58:01.249Z,18.67
2023-02-16T18:00:05.506Z,17.73
2023-02-16T18:02:10.589Z,18.53
2023-02-16T18:04:13.393Z,17.70
2023-02-16T18:06:18.147Z,17.80
2023-02-16T18:08:20.891Z,17.77
2023-02-16T18:10:34.409Z,18.27
2023-02-16T18:12:37.139Z,17.97
2023-02-16T18:14:40.293Z,23.93
2023-02-16T18:16:43.163Z,19.80
2023-02-16T18:18:47.265Z,19.20
2023-02-16T18:20:50.058Z,20.27
2023-02-16T18:22:52.978Z,19.70
2023-02-16T18:24:55.685Z,18.53
2023-02-16T18:26:58.774Z,19.33
2023-02-16T18:29:01.520Z,20.10
2023-02-16T18:31:07.302Z,18.80
2023-02-16T18:33:10.158Z,18.57
2023-02-16T18:35:15.196Z,19.27
2023-02-16T18:37:18.241Z,18.40
2023-02-16T18:39:20.943Z,19.87
2023-02-16T18:41:23.759Z,19.43
2023-02-16T18:43:26.572Z,18.77
2023-02-16T18:45:30.030Z,19.70
2023-02-16T18:47:32.772Z,19.57
2023-02-16T18:49:35.844Z,19.27
2023-02-16T18:51:39.999Z,19.50
2023-02-16T18:53:42.833Z,20.37
2023-02-16T18:55:45.611Z,19.67
2023-02-16T18:57:48.411Z,18.20
2023-02-16T18:59:54.212Z,19.17
2023-02-16T19:01:57.692Z,19.00
2023-02-16T19:04:01.194Z,19.40
2023-02-16T19:06:04.398Z,19.73
2023-02-16T19:08:08.665Z,19.30
2023-02-16T19:10:14.667Z,20.57
2023-02-16T19:12:17.939Z,18.67
2023-02-16T19:14:20.686Z,18.50
2023-02-16T19:16:23.747Z,19.10
2023-02-16T19:18:29.142Z,20.27
2023-02-16T19:20:31.955Z,17.97
2023-02-16T19:22:37.212Z,19.07
2023-02-16T19:24:41.492Z,19.43
2023-02-16T19:26:44.363Z,20.03
2023-02-16T19:28:47.278Z,18.90
2023-02-16T19:30:50.278Z,18.93
2023-02-16T19:32:53.144Z,19.37
2023-02-16T19:34:56.111Z,19.17
2023-02-16T19:36:58.819Z,19.07
2023-02-16T19:39:01.854Z,30.60
2023-02-16T19:41:11.935Z,23.00
2023-02-16T19:43:14.678Z,23.03
2023-02-16T19:45:17.504Z,21.37
2023-02-16T19:47:20.231Z,19.27
2023-02-16T19:49:23.052Z,19.37
2023-02-16T19:51:26.499Z,19.20
2023-02-16T19:53:30.029Z,20.10
2023-02-16T19:55:33.337Z,18.43
2023-02-16T19:57:37.521Z,19.00
2023-02-16T19:59:40.181Z,18.93
2023-02-16T20:01:42.982Z,19.00
2023-02-16T20:03:46.326Z,19.13
2023-02-16T20:05:49.196Z,19.27
2023-02-16T20:07:51.887Z,17.87
2023-02-16T20:09:54.697Z,18.27
2023-02-16T20:11:57.413Z,18.93
2023-02-16T20:14:02.323Z,18.17
2023-02-16T20:16:07.387Z,18.03
2023-02-16T20:18:13.018Z,17.10
2023-02-16T20:20:15.803Z,18.17
2023-02-16T20:22:18.830Z,18.53
2023-02-16T20:24:21.522Z,17.57
2023-02-16T20:26:27.086Z,18.70
2023-02-16T20:28:29.922Z,19.20
2023-02-16T20:30:34.251Z,18.57
2023-02-16T20:32:37.047Z,19.03
2023-02-16T20:34:39.870Z,17.97
2023-02-16T20:36:45.324Z,18.87
2023-02-16T20:38:50.260Z,18.33
2023-02-16T20:40:53.044Z,18.60
2023-02-16T20:42:55.803Z,18.57
2023-02-16T20:44:58.565Z,19.40
2023-02-16T20:47:02.750Z,21.00
2023-02-16T20:49:06.679Z,20.17
2023-02-16T20:51:11.793Z,22.93
2023-02-16T20:53:14.533Z,21.50
2023-02-16T20:55:17.342Z,20.63
2023-02-16T20:57:26.846Z,21.00
2023-02-16T20:59:30.131Z,19.67
2023-02-16T21:01:38.101Z,19.03
2023-02-16T21:03:42.610Z,20.77
2023-02-16T21:05:45.526Z,17.53
2023-02-16T21:07:49.963Z,20.53
2023-02-16T21:09:53.011Z,19.03
2023-02-16T21:11:56.205Z,19.30
2023-02-16T21:13:59.250Z,19.03
2023-02-16T21:16:02.425Z,17.97
2023-02-16T21:18:05.783Z,18.47
2023-02-16T21:20:11.009Z,19.03
2023-02-16T21:22:13.736Z,18.47
2023-02-16T21:24:16.554Z,18.50
2023-02-16T21:26:21.757Z,19.03
2023-02-16T21:28:24.476Z,18.23
2023-02-16T21:30:27.363Z,18.20
2023-02-16T21:32:30.114Z,18.73
2023-02-16T21:34:33.028Z,17.70
2023-02-16T21:36:37.723Z,18.17
2023-02-16T21:38:42.324Z,18.57
2023-02-16T21:41:02.436Z,18.53
2023-02-16T21:43:05.228Z,18.53
2023-02-16T21:45:14.508Z,18.70
2023-02-16T21:47:36.144Z,18.23
2023-02-16T21:49:39.974Z,18.80
2023-02-16T21:51:45.486Z,18.80
2023-02-16T21:53:49.101Z,17.70
2023-02-16T21:56:09.506Z,18.70
2023-02-16T21:58:12.538Z,18.03
2023-02-16T22:00:16.415Z,18.57
2023-02-16T22:02:19.204Z,18.93
2023-02-16T22:04:23.598Z,18.87
2023-02-16T22:06:28.493Z,18.40
2023-02-16T22:08:34.665Z,18.47
2023-02-16T22:10:37.441Z,17.87
2023-02-16T22:12:40.314Z,18.13
2023-02-16T22:14:43.038Z,18.23
2023-02-16T22:16:48.148Z,17.97
2023-02-16T22:18:51.234Z,18.30
2023-02-16T22:20:53.949Z,17.33
2023-02-16T22:22:56.789Z,17.87
2023-02-16T22:25:00.844Z,18.20
2023-02-16T22:27:03.658Z,18.27
2023-02-16T22:29:07.828Z,17.57
2023-02-16T22:31:10.590Z,17.27
2023-02-16T22:33:13.356Z,18.17
2023-02-16T22:35:16.248Z,19.40
2023-02-16T22:37:18.994Z,18.63
2023-02-16T22:39:22.078Z,18.50
2023-02-16T22:41:26.774Z,18.33
2023-02-16T22:43:29.540Z,18.60
2023-02-16T22:45:32.523Z,18.17
2023-02-16T22:47:35.248Z,18.23
2023-02-16T22:49:37.992Z,18.50
2023-02-16T22:51:40.833Z,18.60
2023-02-16T22:53:43.900Z,19.17
2023-02-16T22:55:46.675Z,19.00
2023-02-16T22:57:50.756Z,18.37
2023-02-16T22:59:53.457Z,18.77
2023-02-16T23:01:56.216Z,18.40
2023-02-16T23:04:02.046Z,18.53
2023-02-16T23:06:12.690Z,19.03
2023-02-16T23:08:15.706Z,20.53
2023-02-16T23:10:18.668Z,21.20
2023-02-16T23:12:21.397Z,20.97
2023-02-16T23:14:25.448Z,20.93
2023-02-16T23:16:29.037Z,20.03
2023-02-16T23:18:31.951Z,21.30
2023-02-16T23:20:35.157Z,20.23
2023-02-16T23:22:37.933Z,20.03
2023-02-16T23:24:41.664Z,19.27
2023-02-16T23:26:44.800Z,20.63
2023-02-16T23:28:51.619Z,20.23
2023-02-16T23:30:57.474Z,19.93
2023-02-16T23:33:00.419Z,19.33
2023-02-16T23:35:03.234Z,19.93
2023-02-16T23:37:05.970Z,21.80
2023-02-16T23:39:10.943Z,20.07
2023-02-16T23:41:15.730Z,19.70
2023-02-16T23:43:18.524Z,20.33
2023-02-16T23:45:21.255Z,20.47
2023-02-16T23:47:25.448Z,18.67
2023-02-16T23:49:28.357Z,21.23
2023-02-16T23:51:31.664Z,19.13
2023-02-16T23:53:34.955Z,19.00
2023-02-16T23:55:37.774Z,20.23
2023-02-16T23:57:40.519Z,18.50
2023-02-16T23:59:43.541Z,18.63
